Time;durP1;ratioP1;P1;durP2;ratioP2;P2;SDS_P1;SDS_P2;PMS_P1;PMS_P2;Temp;Humidity;BMP_temperature;BMP_pressure;BME280_temperature;BME280_humidity;BME280_pressure;Samples;Min_cycle;Max_cycle;Signal;HPM_P1;HPM_P2
2021/11/17 02:26:16;;;;;;;6.70;4.78;;;20.30;44.40;;;23.95;29.76;101547.91;5091438;28;20115;-39
2021/11/17 02:29:44;;;;;;;6.03;4.32;;;20.30;44.40;;;23.97;29.94;101547.81;5095294;28;20060;-39
2021/11/17 02:32:49;;;;;;;5.75;4.22;;;20.30;44.40;;;23.99;30.01;101544.13;5012960;28;20053;-39
2021/11/17 02:36:08;;;;;;;5.45;3.80;;;20.30;44.40;;;23.99;29.82;101537.88;5071939;28;20459;-39
2021/11/17 02:38:53;;;;;;;5.90;4.10;;;20.30;44.40;;;23.96;29.82;101533.63;5095169;28;20056;-38
2021/11/17 02:41:41;;;;;;;6.22;5.00;;;20.30;44.40;;;23.96;30.04;101536.28;5095086;28;20048;-39
2021/11/17 02:44:37;;;;;;;6.05;4.45;;;20.30;44.40;;;23.96;29.96;101533.63;5095157;28;20079;-39
2021/11/17 02:47:39;;;;;;;6.00;4.38;;;20.30;44.40;;;23.98;29.70;101531.69;5094252;28;20097;-39
2021/11/17 02:50:21;;;;;;;5.07;3.78;;;20.30;44.40;;;23.96;29.88;101522.09;5094855;28;20048;-39
2021/11/17 02:52:58;;;;;;;;;;;20.30;44.40;;;24.10;29.67;101527.38;5095541;28;20044;-38
2021/11/17 02:55:42;;;;;;;6.35;4.53;;;20.30;44.40;;;24.01;29.76;101514.63;5094688;28;19968;-39
2021/11/17 02:58:55;;;;;;;5.10;4.25;;;20.30;44.40;;;24.00;29.96;101510.22;5094730;28;20052;-38
2021/11/17 03:01:59;;;;;;;5.03;4.00;;;20.30;44.40;;;23.98;29.76;101502.31;5094720;28;20109;-39
2021/11/17 03:04:50;;;;;;;5.85;4.22;;;20.30;44.40;;;23.95;29.83;101493.66;5077232;28;20467;-39
2021/11/17 03:07:46;;;;;;;6.22;5.00;;;20.30;44.30;;;24.01;29.90;101507.47;5094729;28;20518;-38
2021/11/17 03:10:35;;;;;;;6.70;4.70;;;20.40;44.30;;;24.01;29.97;101503.94;5094943;28;20048;-39
2021/11/17 03:13:19;;;;;;;5.00;3.70;;;20.40;44.30;;;24.01;29.85;101495.94;5052911;28;20407;-39
2021/11/17 03:16:09;;;;;;;5.80;4.30;;;20.40;44.20;;;24.03;29.80;101497.53;5077488;28;20471;-39
2021/11/17 03:19:24;;;;;;;5.15;3.90;;;20.40;44.10;;;24.06;29.75;101493.81;5094511;28;20357;-39
2021/11/17 03:22:51;;;;;;;5.00;3.70;;;20.40;44.10;;;24.07;29.70;101484.81;5094404;28;20052;-39
2021/11/17 03:25:48;;;;;;;6.25;3.97;;;20.40;44.10;;;24.08;29.62;101491.03;4996442;28;20437;-39
2021/11/17 03:29:02;;;;;;;5.55;3.85;;;20.40;44.00;;;24.08;29.83;101483.88;5094364;28;20078;-39
2021/11/17 03:31:52;;;;;;;5.53;4.22;;;20.50;44.10;;;24.07;29.86;101484.81;5049179;28;20487;-38
2021/11/17 03:34:28;;;;;;;5.40;3.83;;;20.50;44.10;;;24.10;29.74;101473.94;5094295;28;20130;-39
2021/11/17 03:37:31;;;;;;;5.35;4.03;;;20.50;44.00;;;24.09;29.69;101472.25;5094327;28;20430;-38
2021/11/17 03:40:35;;;;;;;6.05;4.35;;;20.50;44.00;;;24.11;29.65;101480.16;5094198;28;20040;-39
2021/11/17 03:43:23;;;;;;;5.38;3.90;;;20.50;44.00;;;24.12;29.72;101473.84;5094279;28;20062;-39
2021/11/17 03:46:34;;;;;;;5.53;3.83;;;20.60;44.00;;;24.13;29.60;101479.09;5094283;28;20055;-39
2021/11/17 03:49:28;;;;;;;5.82;3.88;;;20.60;43.90;;;24.17;29.63;101474.41;5094161;28;20044;-38
2021/11/17 03:52:38;;;;;;;5.43;3.80;;;20.60;43.90;;;24.18;29.72;101474.28;5094371;28;20052;-39
2021/11/17 03:55:40;;;;;;;4.97;4.10;;;20.60;43.80;;;24.18;29.66;101474.28;5093983;28;20436;-38
2021/11/17 03:58:20;;;;;;;4.75;3.58;;;20.60;43.80;;;24.17;29.64;101472.59;5093615;28;20461;-39
2021/11/17 04:01:09;;;;;;;5.13;4.18;;;20.60;43.80;;;24.20;29.71;101477.72;5093880;28;20048;-39
2021/11/17 04:03:35;;;;;;;5.20;3.70;;;20.60;43.70;;;24.23;29.50;101484.69;5075699;28;20048;-40
2021/11/17 04:06:21;;;;;;;5.60;3.97;;;20.70;43.80;;;24.22;29.61;101480.28;5093737;28;20070;-39
2021/11/17 04:09:33;;;;;;;5.57;4.05;;;20.70;43.70;;;24.21;29.78;101474.09;5093783;28;20044;-39
2021/11/17 04:12:23;;;;;;;4.60;3.85;;;20.70;43.70;;;24.27;29.65;101474.66;5093774;28;20052;-39
2021/11/17 04:14:54;;;;;;;6.28;4.50;;;20.70;43.70;;;24.27;29.71;101480.84;5093647;28;20044;-39
2021/11/17 04:17:54;;;;;;;4.38;3.97;;;20.70;43.70;;;24.27;29.76;101475.50;5093124;28;20056;-38
2021/11/17 04:20:45;;;;;;;4.93;3.85;;;20.70;43.60;;;24.28;29.76;101471.88;5093371;28;20125;-39
2021/11/17 04:23:49;;;;;;;5.80;4.18;;;20.80;43.70;;;24.29;29.66;101476.28;5093827;28;20051;-39
2021/11/17 04:26:43;;;;;;;5.43;4.00;;;20.80;43.70;;;24.31;29.58;101466.34;5093454;28;20105;-39
2021/11/17 04:29:33;;;;;;;5.05;3.42;;;20.80;43.70;;;24.31;29.45;101468.16;5093146;28;20060;-39
2021/11/17 04:32:28;;;;;;;5.18;4.00;;;20.70;43.60;;;24.34;29.54;101467.94;5093358;28;20044;-39
2021/11/17 04:35:37;;;;;;;4.85;3.78;;;20.80;43.60;;;24.33;29.52;101456.38;5093263;28;20071;-39
2021/11/17 04:38:30;;;;;;;4.05;3.45;;;20.80;43.60;;;24.32;29.50;101460.00;5093228;28;20134;-39
2021/11/17 04:41:17;;;;;;;4.68;3.65;;;20.80;43.60;;;24.33;29.72;101464.41;5093209;28;20048;-39
2021/11/17 04:44:12;;;;;;;4.95;3.85;;;20.70;43.60;;;24.30;29.65;101453.91;5093208;28;20047;-39
2021/11/17 04:47:13;;;;;;;4.38;3.67;;;20.70;43.60;;;24.33;29.47;101456.38;5093063;28;20514;-40
2021/11/17 04:50:27;;;;;;;4.65;3.72;;;20.80;43.70;;;24.38;29.45;101456.09;5092971;28;20056;-38
2021/11/17 04:53:17;;;;;;;4.80;3.67;;;20.70;43.60;;;24.33;29.44;101456.38;5066027;28;20044;-39
2021/11/17 04:56:25;;;;;;;4.65;4.05;;;20.70;43.60;;;24.35;29.54;101457.13;5092944;28;20043;-39
2021/11/17 04:59:20;;;;;;;4.32;3.40;;;20.70;43.60;;;24.37;29.48;101462.38;5092959;28;20059;-39
2021/11/17 05:02:01;;;;;;;5.95;3.97;;;20.80;43.70;;;24.37;29.56;101462.38;5081805;28;20044;-39
2021/11/17 05:04:34;;;;;;;4.38;3.53;;;20.80;43.60;;;24.38;29.55;101456.94;5076642;28;20396;-39
2021/11/17 05:07:11;;;;;;;4.85;3.83;;;20.80;43.60;;;24.38;29.46;101464.97;5092602;28;20083;-39
2021/11/17 05:09:51;;;;;;;4.30;3.55;;;20.70;43.60;;;24.38;29.53;101462.28;5092846;28;20186;-39
2021/11/17 05:13:14;;;;;;;4.15;3.45;;;20.80;43.60;;;24.37;29.69;101452.56;5093415;28;20044;-39
2021/11/17 05:16:05;;;;;;;3.55;3.10;;;20.80;43.70;;;24.36;29.49;101458.03;5092551;28;20102;-40
2021/11/17 05:19:11;;;;;;;5.57;4.22;;;20.80;43.60;;;24.38;29.47;101456.09;5092664;28;20110;-39
2021/11/17 05:22:22;;;;;;;4.68;3.65;;;20.80;43.60;;;24.40;29.52;101464.84;5092769;28;20048;-39
2021/11/17 05:25:50;;;;;;;3.97;3.20;;;20.80;43.70;;;24.40;29.52;101448.81;5093099;28;20508;-39
2021/11/17 05:28:47;;;;;;;4.43;3.10;;;20.70;43.60;;;24.37;29.41;101449.91;5019894;28;20050;-38
2021/11/17 05:31:33;;;;;;;4.43;3.20;;;20.80;43.60;;;24.37;29.39;101455.25;5092682;28;20084;-39
2021/11/17 05:34:27;;;;;;;4.85;3.80;;;20.70;43.60;;;24.38;29.59;101453.41;5092833;28;20044;-39
2021/11/17 05:37:21;;;;;;;4.47;3.30;;;20.80;43.60;;;24.38;29.49;101450.75;5092305;28;20388;-38
2021/11/17 05:40:10;;;;;;;4.88;3.58;;;20.70;43.60;;;24.37;29.40;101457.03;5092251;28;20077;-39
2021/11/17 05:42:51;;;;;;;5.45;4.28;;;20.80;43.60;;;24.33;29.40;101451.03;5092431;28;20052;-39
2021/11/17 05:45:47;;;;;;;4.18;3.22;;;20.70;43.60;;;24.38;29.40;101450.75;5092090;28;20059;-38
2021/11/17 05:48:58;;;;;;;4.85;3.67;;;20.80;43.60;;;24.37;29.52;101451.69;5095999;28;20116;-39
2021/11/17 05:51:58;;;;;;;3.60;2.50;;;20.70;43.50;;;24.44;29.35;101445.00;5091731;28;20048;-39
2021/11/17 05:54:59;;;;;;;5.07;3.70;;;20.80;43.60;;;24.40;29.37;101452.34;5095909;28;20051;-40
2021/11/17 05:58:12;;;;;;;4.00;3.10;;;20.80;43.60;;;24.41;29.38;101453.22;5090150;28;20048;-39
2021/11/17 06:01:32;;;;;;;4.60;3.42;;;20.80;43.60;;;24.42;29.44;101460.25;5030197;28;20051;-39
2021/11/17 06:04:02;;;;;;;4.93;3.80;;;20.80;43.60;;;24.40;29.41;101455.00;5095709;28;20087;-38
2021/11/17 06:06:27;;;;;;;4.70;3.72;;;20.70;43.50;;;24.39;29.46;101456.00;5096065;28;20116;-39
2021/11/17 06:08:56;;;;;;;4.45;3.50;;;20.80;43.50;;;24.39;29.44;101453.31;5095496;28;20043;-40
2021/11/17 06:11:48;;;;;;;4.80;3.55;;;20.70;43.50;;;24.35;29.32;101449.13;5095597;28;20479;-39
2021/11/17 06:14:22;;;;;;;4.78;3.58;;;20.80;43.60;;;24.38;29.25;101458.75;5095817;28;20081;-39
2021/11/17 06:16:53;;;;;;;5.00;3.78;;;20.80;43.60;;;24.38;29.64;101454.25;5077264;28;20036;-41
2021/11/17 06:19:24;;;;;;;4.07;3.10;;;20.80;43.70;;;24.36;29.39;101450.00;5076454;28;20049;-39
2021/11/17 06:21:51;;;;;;;3.85;3.30;;;20.70;43.60;;;24.39;29.30;101452.44;5095784;28;20052;-40
2021/11/17 06:24:20;;;;;;;4.18;3.55;;;20.80;43.60;;;24.40;29.29;101459.50;5077523;28;20040;-39
2021/11/17 06:26:47;;;;;;;5.53;3.55;;;20.80;43.70;;;24.38;29.27;101440.91;5095246;28;20495;-40
2021/11/17 06:29:28;;;;;;;4.20;3.15;;;20.70;43.60;;;24.39;29.35;101442.63;5095560;28;20052;-39
2021/11/17 06:31:55;;;;;;;4.60;3.25;;;20.70;43.60;;;24.41;29.42;101443.38;5077160;28;20130;-40
2021/11/17 06:34:38;;;;;;;4.30;3.45;;;20.80;43.70;;;24.38;29.40;101434.72;5095227;28;20060;-39
2021/11/17 06:37:08;;;;;;;3.63;3.28;;;20.70;43.60;;;24.42;29.33;101433.53;5095275;28;20044;-40
2021/11/17 06:39:37;;;;;;;2.83;2.30;;;20.80;43.70;;;24.44;29.46;101423.63;5095210;28;20078;-39
2021/11/17 06:42:08;;;;;;;3.75;3.05;;;20.80;43.60;;;24.44;29.37;101423.63;5095560;28;20043;-39
2021/11/17 06:44:34;;;;;;;3.53;2.97;;;20.80;43.70;;;24.43;29.27;101413.88;5077220;28;20177;-39
2021/11/17 06:46:59;;;;;;;3.53;3.08;;;20.70;43.60;;;24.43;29.50;101411.19;5094946;28;20056;-39
2021/11/17 06:49:25;;;;;;;3.95;3.40;;;20.80;43.60;;;24.39;29.28;101415.03;5095303;28;20131;-39
2021/11/17 06:51:51;;;;;;;3.92;3.20;;;20.80;43.60;;;24.44;29.54;101423.63;5094756;28;20241;-39
2021/11/17 06:54:17;;;;;;;3.85;3.33;;;20.80;43.70;;;24.44;29.40;101412.03;5094861;28;20052;-40
2021/11/17 06:56:43;;;;;;;4.28;3.17;;;20.80;43.60;;;24.42;29.40;101402.34;5094540;28;20480;-39
2021/11/17 06:59:08;;;;;;;3.92;3.30;;;20.80;43.60;;;24.40;29.31;101396.22;5093413;28;20055;-39
2021/11/17 07:01:34;;;;;;;4.05;3.17;;;20.80;43.60;;;24.42;29.43;101399.66;5094986;28;20048;-39
2021/11/17 07:04:00;;;;;;;4.30;3.42;;;20.80;43.60;;;24.41;29.45;101402.44;5094652;28;20040;-39
2021/11/17 07:06:26;;;;;;;8.45;3.42;;;20.80;43.70;;;24.47;29.55;101427.88;5094496;28;20048;-38
2021/11/17 07:08:52;;;;;;;6.22;3.08;;;20.80;43.70;;;24.45;29.63;101411.94;5094210;28;20094;-38
2021/11/17 07:11:19;;;;;;;4.95;2.72;;;20.80;43.80;;;24.46;29.35;101407.44;5094764;28;20044;-38
2021/11/17 07:13:45;;;;;;;7.38;2.97;;;20.80;43.70;;;24.50;29.32;101416.97;5094550;28;20052;-39
2021/11/17 07:16:11;;;;;;;4.97;3.42;;;20.90;43.70;;;24.49;29.41;101404.56;5076087;28;20052;-38
2021/11/17 07:18:38;;;;;;;5.25;2.80;;;20.90;43.60;;;24.52;29.31;101407.88;5094237;28;20410;-38
2021/11/17 07:21:06;;;;;;;5.07;3.05;;;20.90;43.60;;;24.52;29.45;101425.75;5094091;28;20067;-38
2021/11/17 07:23:32;;;;;;;4.90;3.20;;;20.90;43.60;;;24.49;29.37;101428.63;5094185;28;20487;-38
2021/11/17 07:25:58;;;;;;;3.28;2.63;;;20.90;43.60;;;24.49;29.43;101425.94;5075660;28;20048;-39
2021/11/17 07:28:24;;;;;;;4.68;3.35;;;20.90;43.60;;;24.53;29.20;101440.84;5094410;28;20475;-38
2021/11/17 07:30:50;;;;;;;4.00;2.53;;;20.90;43.60;;;24.53;29.25;101443.50;5094065;28;20040;-38
2021/11/17 07:33:16;;;;;;;5.95;3.10;;;20.90;43.60;;;24.52;29.36;101439.97;5094140;28;20048;-39
2021/11/17 07:35:49;;;;;;;4.20;3.03;;;20.90;43.60;;;24.52;29.48;101433.75;5094055;28;20056;-38
2021/11/17 07:38:21;;;;;;;6.22;3.20;;;20.90;43.50;;;24.54;29.23;101430.03;5094074;28;20094;-38
2021/11/17 07:40:47;;;;;;;4.03;3.03;;;21.00;43.60;;;24.54;29.38;101430.03;5094083;28;20048;-39
2021/11/17 07:43:19;;;;;;;3.78;2.83;;;20.90;43.50;;;24.50;29.19;101415.16;5093940;28;20059;-38
2021/11/17 07:45:45;;;;;;;4.60;3.00;;;20.90;43.50;;;24.53;29.17;101417.63;5094361;28;20067;-38
2021/11/17 07:48:13;;;;;;;4.57;2.90;;;20.90;43.60;;;24.51;29.25;101419.56;5093923;28;20047;-38
2021/11/17 07:50:42;;;;;;;3.25;2.58;;;20.90;43.60;;;24.52;29.29;101423.91;5093613;28;20075;-38
2021/11/17 07:53:11;;;;;;;4.30;2.90;;;20.90;43.60;;;24.51;29.20;101422.22;5093733;28;20123;-38
2021/11/17 07:55:41;;;;;;;3.78;3.13;;;20.90;43.50;;;24.54;29.20;101423.81;5093670;28;20055;-38
2021/11/17 07:58:09;;;;;;;5.75;3.15;;;20.90;43.50;;;24.51;29.36;101419.56;5093867;28;20488;-38
2021/11/17 08:00:39;;;;;;;3.92;2.97;;;20.90;43.50;;;24.52;29.20;101420.41;5075422;28;20087;-39
2021/11/17 08:03:05;;;;;;;3.70;2.75;;;20.90;43.50;;;24.52;29.25;101421.25;5073655;28;20059;-38
2021/11/17 08:05:32;;;;;;;3.88;2.97;;;20.90;43.50;;;24.53;29.37;101420.28;5075005;28;20048;-38
2021/11/17 08:08:00;;;;;;;3.22;2.85;;;20.90;43.60;;;24.54;29.29;101423.81;5093339;28;20131;-38
2021/11/17 08:10:30;;;;;;;3.10;2.75;;;20.80;43.50;;;24.53;29.24;101417.63;5092760;28;20134;-38
2021/11/17 08:12:56;;;;;;;4.28;3.08;;;20.90;43.60;;;24.53;29.30;101406.94;5093421;28;20142;-38
2021/11/17 08:15:22;;;;;;;3.40;2.88;;;20.90;43.60;;;24.53;29.46;101404.25;5093482;28;20056;-38
2021/11/17 08:17:47;;;;;;;4.40;2.80;;;20.90;43.50;;;24.54;29.18;101399.75;5093096;28;20136;-38
2021/11/17 08:20:18;;;;;;;4.30;2.95;;;20.90;43.50;;;24.52;29.33;101399.84;5093329;28;20087;-38
2021/11/17 08:22:48;;;;;;;3.67;2.97;;;20.90;43.50;;;24.55;29.33;101410.38;5093382;28;20098;-38
2021/11/17 08:25:16;;;;;;;3.15;2.70;;;20.90;43.50;;;24.52;29.17;101402.53;5093221;28;20056;-39
2021/11/17 08:27:42;;;;;;;3.92;2.67;;;20.90;43.50;;;24.55;29.24;101406.84;5093467;28;20044;-39
2021/11/17 08:30:10;;;;;;;3.78;2.70;;;20.90;43.50;;;24.54;29.38;101407.78;5093059;28;20071;-38
2021/11/17 08:32:38;;;;;;;6.18;2.85;;;20.90;43.50;;;24.52;29.20;101412.38;5074910;28;20497;-39
2021/11/17 08:35:07;;;;;;;2.80;2.40;;;20.90;43.40;;;24.52;29.21;101410.53;5092740;28;20063;-38
2021/11/17 08:37:33;;;;;;;6.20;2.70;;;20.90;43.40;;;24.53;29.30;101408.75;5092659;28;20056;-38
2021/11/17 08:40:08;;;;;;;3.63;2.70;;;20.90;43.40;;;24.51;29.39;101405.34;5093186;28;20098;-38
2021/11/17 08:42:34;;;;;;;3.70;3.13;;;20.90;43.50;;;24.54;29.31;101405.97;5093078;28;20044;-39
2021/11/17 08:45:00;;;;;;;3.80;2.55;;;20.90;43.40;;;24.54;29.18;101400.63;5092956;28;20075;-39
2021/11/17 08:47:26;;;;;;;3.53;2.60;;;20.90;43.40;;;24.55;29.07;101402.34;5092791;28;20044;-38
2021/11/17 08:49:54;;;;;;;2.97;2.45;;;20.90;43.30;;;24.55;29.35;101396.16;5074590;28;20519;-38
2021/11/17 08:52:22;;;;;;;3.28;2.58;;;20.90;43.40;;;24.53;29.35;101390.03;5092627;28;20136;-39
2021/11/17 08:54:48;;;;;;;4.63;3.42;;;20.90;43.40;;;24.53;29.16;101390.03;5092723;28;20044;-38
2021/11/17 08:57:16;;;;;;;3.92;2.40;;;20.90;43.30;;;24.56;29.12;101397.88;5092531;28;20052;-40
2021/11/17 08:59:45;;;;;;;3.17;2.70;;;20.90;43.30;;;24.55;29.15;101388.16;5092693;28;20051;-39
2021/11/17 09:02:11;;;;;;;3.88;2.83;;;20.90;43.20;;;24.58;29.01;101404.81;5092486;28;20044;-38
2021/11/17 09:04:37;;;;;;;4.10;2.53;;;20.90;43.20;;;24.58;29.24;101396.81;5092817;28;20055;-39
2021/11/17 09:07:04;;;;;;;4.43;2.65;;;20.90;43.20;;;24.60;29.26;101407.41;5093153;28;20063;-38
2021/11/17 09:09:33;;;;;;;3.47;2.53;;;20.90;43.20;;;24.60;29.22;101402.03;5092442;28;20043;-38
2021/11/17 09:12:00;;;;;;;3.25;2.47;;;21.00;43.30;;;24.59;29.12;101392.31;5073277;28;20072;-38
2021/11/17 09:14:26;;;;;;;2.65;2.42;;;21.00;43.30;;;24.55;29.13;101382.78;5092470;28;20055;-38
2021/11/17 09:16:52;;;;;;;4.65;2.67;;;20.90;43.20;;;24.57;29.12;101387.09;5092235;28;20043;-39
2021/11/17 09:19:20;;;;;;;3.75;2.97;;;20.90;43.20;;;24.60;29.07;101388.69;5092290;28;20085;-38
2021/11/17 09:21:48;;;;;;;4.35;2.78;;;20.90;43.20;;;24.57;29.21;101376.41;5091579;28;20135;-38
2021/11/17 09:24:16;;;;;;;3.17;2.70;;;21.00;43.20;;;24.57;29.15;101372.84;5092404;28;20116;-38
2021/11/17 09:26:46;;;;;;;4.38;2.72;;;21.00;43.10;;;24.58;29.14;101377.25;5092288;28;20467;-38
2021/11/17 09:29:12;;;;;;;4.00;2.92;;;21.00;43.10;;;24.62;29.22;101378.72;5092195;28;20395;-37
2021/11/17 09:31:43;;;;;;;4.28;3.00;;;20.90;43.10;;;24.59;29.10;101374.47;5074099;28;20036;-38
2021/11/17 09:34:10;;;;;;;5.82;2.40;;;20.90;43.10;;;24.61;28.95;101371.69;5092453;28;20419;-37
2021/11/17 09:36:38;;;;;;;4.45;2.95;;;20.90;43.10;;;24.63;28.90;101376.94;5092143;28;20047;-38
2021/11/17 09:39:06;;;;;;;5.00;2.60;;;21.00;43.20;;;24.60;29.06;101369.97;5092138;28;20043;-37
2021/11/17 09:41:47;;;;;;;4.18;2.58;;;21.00;43.20;;;24.59;29.19;101371.78;5092470;28;20048;-37
2021/11/17 09:44:30;;;;;;;3.93;2.83;;;20.90;43.10;;;24.59;29.00;101366.44;5073806;28;20040;-37
2021/11/17 09:47:00;;;;;;;4.28;2.92;;;21.00;43.20;;;24.60;28.99;101361.94;5074522;28;20059;-37
2021/11/17 09:49:50;;;;;;;4.10;2.75;;;21.00;43.20;;;24.59;29.16;101365.56;5073935;28;20052;-37
2021/11/17 09:52:33;;;;;;;2.67;2.00;;;20.90;43.20;;;24.59;29.03;101369.13;5070562;28;20101;-37
2021/11/17 09:55:23;;;;;;;4.53;2.95;;;20.90;43.20;;;24.59;29.13;101376.25;5092320;28;20498;-37
2021/11/17 09:58:04;;;;;;;4.13;2.50;;;20.90;43.20;;;24.56;29.15;101366.66;5089199;28;20048;-37
2021/11/17 10:01:12;;;;;;;3.75;3.20;;;20.90;43.10;;;24.60;29.22;101364.63;5091977;28;20554;-37
2021/11/17 10:03:46;;;;;;;4.00;2.88;;;20.90;43.20;;;24.59;28.96;101369.13;5045648;28;20139;-37
2021/11/17 10:15:12;;;;;;;4.18;2.40;;;21.00;43.20;;;24.57;29.07;101359.47;5091959;28;20047;-37
2021/11/17 10:18:06;;;;;;;4.35;2.53;;;20.90;43.10;;;24.54;29.19;101354.31;5091861;28;20059;-37
2021/11/17 10:20:38;;;;;;;3.70;3.00;;;21.00;43.10;;;24.57;29.03;101363.03;5091381;28;20048;-37
2021/11/17 10:23:25;;;;;;;3.17;2.75;;;20.90;42.90;;;24.54;29.03;101356.97;5091633;28;20055;-38
2021/11/17 10:26:01;;;;;;;3.63;2.80;;;20.90;43.00;;;24.55;29.17;101359.59;5092015;28;20048;-37
2021/11/17 10:28:30;;;;;;;2.75;2.45;;;21.00;43.10;;;24.57;29.08;101360.34;5091831;28;20072;-38
2021/11/17 10:31:17;;;;;;;3.25;2.70;;;20.90;43.10;;;24.55;29.17;101356.06;5091275;28;20052;-38
2021/11/17 10:34:08;;;;;;;3.95;3.15;;;20.90;43.10;;;24.55;29.15;101348.88;5094699;28;20048;-38
2021/11/17 10:36:52;;;;;;;;;;;20.90;43.10;;;24.68;28.86;101351.56;5095268;28;20048;-37
2021/11/17 10:39:29;;;;;;;2.30;2.00;;;20.90;43.10;;;24.61;28.94;101344.94;5095063;28;19916;-38
2021/11/17 10:42:14;;;;;;;3.63;2.65;;;20.90;43.10;;;24.55;28.94;101335.53;5095186;28;20056;-37
2021/11/17 10:45:04;;;;;;;4.88;2.83;;;20.90;43.10;;;24.58;29.08;101348.69;5094517;28;20052;-38
2021/11/17 10:47:30;;;;;;;4.03;2.70;;;20.90;43.10;;;24.60;29.22;101344.06;5075933;28;20056;-38
2021/11/17 10:50:34;;;;;;;3.03;2.45;;;20.90;43.10;;;24.59;29.14;101346.84;5094860;28;20044;-38
2021/11/17 10:53:14;;;;;;;3.45;2.45;;;20.90;43.10;;;24.58;29.12;101339.81;5094172;28;20074;-38
2021/11/17 10:55:46;;;;;;;4.43;2.65;;;20.90;43.10;;;24.58;28.99;101340.66;5076347;28;20048;-38
2021/11/17 10:58:28;;;;;;;3.58;2.33;;;20.90;43.10;;;24.55;29.06;101346.22;5094757;28;20432;-38
2021/11/17 11:01:12;;;;;;;3.17;2.65;;;20.90;43.10;;;24.60;29.10;101348.56;5094531;28;20135;-39
2021/11/17 11:03:46;;;;;;;3.42;2.20;;;20.90;43.20;;;24.57;29.16;101351.47;5090691;28;20460;-38
2021/11/17 11:06:32;;;;;;;3.10;2.30;;;20.90;43.20;;;24.57;28.98;101356.81;5075630;28;20403;-38
2021/11/17 11:09:16;;;;;;;5.53;2.40;;;20.90;43.10;;;24.58;29.00;101356.69;5074329;28;20197;-39
2021/11/17 11:11:50;;;;;;;3.10;2.42;;;20.90;43.20;;;24.58;29.10;101346.00;5094415;28;20048;-39
2021/11/17 11:14:29;;;;;;;3.08;2.28;;;21.00;43.30;;;24.58;29.08;101354.03;5093905;28;20547;-37
2021/11/17 11:17:41;;;;;;;2.85;2.53;;;20.90;43.20;;;24.59;29.14;101347.72;5075564;28;20076;-38
2021/11/17 11:20:16;;;;;;;2.88;2.50;;;21.00;43.30;;;24.59;28.96;101357.53;5091715;28;20048;-38
2021/11/17 11:23:04;;;;;;;5.03;2.50;;;21.00;43.30;;;24.58;29.05;101361.19;5093713;28;20044;-38
2021/11/17 11:25:43;;;;;;;3.72;2.65;;;20.90;43.20;;;24.54;29.25;101357.84;5094305;28;20055;-38
2021/11/17 11:28:21;;;;;;;3.13;2.50;;;20.90;43.20;;;24.56;28.96;101344.41;5094143;28;20085;-38
2021/11/17 11:31:10;;;;;;;3.88;2.30;;;20.90;43.20;;;24.56;29.07;101361.31;5094284;28;20048;-38
2021/11/17 11:33:50;;;;;;;2.97;2.53;;;20.90;43.30;;;24.57;29.06;101349.66;5093810;28;20059;-38
2021/11/17 11:36:16;;;;;;;2.50;2.20;;;20.90;43.20;;;24.59;29.14;101350.41;5093915;28;20106;-38
2021/11/17 11:38:47;;;;;;;5.10;2.45;;;20.90;43.20;;;24.54;29.14;101325.78;5093858;28;20040;-38
2021/11/17 11:41:25;;;;;;;1.80;1.60;;;21.00;43.30;;;24.62;29.09;101335.94;5094646;28;20048;-36
2021/11/17 11:44:20;;;;;;;2.47;2.25;;;20.90;43.20;;;24.61;29.08;101331.59;5093557;28;20044;-38
2021/11/17 11:46:56;;;;;;;2.55;2.17;;;20.90;43.20;;;24.58;29.06;101329.97;5094074;28;20101;-38
2021/11/17 11:49:41;;;;;;;3.78;2.10;;;21.00;43.20;;;24.57;29.04;101324.72;5093667;28;20050;-38
2021/11/17 11:52:31;;;;;;;2.70;2.03;;;21.00;43.10;;;24.61;28.98;101328.91;5092888;28;20052;-38
2021/11/17 11:55:00;;;;;;;3.20;1.67;;;21.00;43.10;;;24.66;28.95;101323.22;5091402;28;20083;-39
2021/11/17 11:57:43;;;;;;;3.13;2.38;;;21.00;43.10;;;24.63;29.02;101323.44;5091177;28;20071;-42
2021/11/17 12:00:16;;;;;;;2.63;2.00;;;21.00;43.10;;;24.64;28.97;101325.16;5092091;28;20107;-38
2021/11/17 12:03:07;;;;;;;4.43;2.50;;;21.00;43.20;;;24.62;29.15;101322.56;5092766;28;20054;-36
2021/11/17 12:05:35;;;;;;;4.38;2.33;;;21.00;43.20;;;24.64;28.82;101320.69;5092770;28;20048;-38
2021/11/17 12:08:25;;;;;;;3.05;2.20;;;21.00;43.20;;;24.63;29.13;101320.78;5074505;28;20403;-38
2021/11/17 12:11:11;;;;;;;3.60;2.30;;;21.00;43.30;;;24.63;29.00;101310.94;5093588;28;20101;-38
2021/11/17 12:13:58;;;;;;;2.38;2.13;;;21.00;43.20;;;24.64;29.12;101296.63;5093579;28;20507;-39
2021/11/17 12:16:41;;;;;;;3.25;2.13;;;21.00;43.20;;;24.64;28.99;101304.63;5093400;28;20514;-38
2021/11/17 12:19:35;;;;;;;3.55;2.42;;;21.00;43.20;;;24.63;29.19;101299.38;5093523;28;20036;-37
2021/11/17 12:22:21;;;;;;;3.85;2.67;;;21.00;43.20;;;24.62;29.06;101289.66;5082385;28;20048;-39
2021/11/17 12:25:09;;;;;;;3.67;2.70;;;21.00;43.20;;;24.65;28.98;101300.97;5093924;28;20055;-39
2021/11/17 12:27:35;;;;;;;2.80;2.13;;;21.00;43.30;;;24.65;29.20;101289.44;5093512;28;20088;-38
2021/11/17 12:30:08;;;;;;;3.67;2.28;;;21.00;43.30;;;24.65;28.98;101289.44;5074333;28;20067;-38
2021/11/17 12:32:41;;;;;;;4.10;2.30;;;21.00;43.20;;;24.65;29.19;101290.28;5093430;28;20044;-38
2021/11/17 12:35:34;;;;;;;2.50;2.10;;;21.00;43.10;;;24.69;29.16;101293.59;5075057;28;20048;-38
2021/11/17 12:38:08;;;;;;;3.88;2.63;;;21.10;43.10;;;24.64;28.98;101285.91;5092965;28;20090;-39
2021/11/17 12:40:48;;;;;;;2.70;2.03;;;21.10;43.00;;;24.64;28.96;101287.72;5093534;28;20526;-38
2021/11/17 12:43:32;;;;;;;2.57;2.20;;;21.10;43.00;;;24.67;28.93;101276.81;5093436;28;20043;-38
2021/11/17 12:46:10;;;;;;;3.28;2.30;;;21.10;43.00;;;24.72;28.94;101296.03;5093212;28;20423;-39
2021/11/17 12:48:55;;;;;;;2.85;2.42;;;21.10;43.10;;;24.68;29.17;101292.75;5093160;28;20105;-39
2021/11/17 12:51:30;;;;;;;4.07;2.28;;;21.10;43.00;;;24.72;29.13;101302.25;5093278;28;20076;-38
2021/11/17 12:54:26;;;;;;;4.40;2.47;;;21.10;43.00;;;24.75;29.08;101299.34;5074778;28;20048;-39
2021/11/17 12:57:03;;;;;;;5.13;2.45;;;21.20;43.20;;;24.75;29.18;101304.69;5073073;28;20050;-44
2021/11/17 12:59:41;;;;;;;3.92;1.95;;;21.20;43.40;;;24.75;28.91;101307.38;5092837;28;20131;-45
2021/11/17 13:02:27;;;;;;;5.82;2.45;;;21.30;43.20;;;24.80;29.24;101309.72;5092753;28;20487;-46
2021/11/17 13:05:14;;;;;;;3.38;2.42;;;21.30;43.10;;;24.81;29.04;101316.81;5092421;28;20066;-45
2021/11/17 13:07:54;;;;;;;3.15;2.47;;;21.30;43.10;;;24.79;29.09;101324.06;5092654;28;20052;-45
2021/11/17 13:10:36;;;;;;;7.23;2.80;;;21.30;43.10;;;24.83;29.13;101327.41;5092618;28;20044;-48
2021/11/17 13:13:17;;;;;;;3.58;1.85;;;21.30;43.20;;;24.80;29.12;101319.59;5072950;28;20052;-45
2021/11/17 13:16:00;;;;;;;4.10;2.55;;;21.20;43.20;;;24.79;28.91;101316.03;5092759;28;20066;-47
2021/11/17 13:18:32;;;;;;;5.22;2.88;;;21.20;43.20;;;24.82;29.02;101323.00;5092674;28;20059;-49
2021/11/17 13:21:23;;;;;;;4.13;2.05;;;21.20;43.20;;;24.78;29.08;101327.72;5092627;28;20445;-47
2021/11/17 13:24:16;;;;;;;4.53;2.50;;;21.20;43.20;;;24.80;28.98;101332.97;5092702;28;20078;-47
2021/11/17 13:26:51;;;;;;;4.68;2.90;;;21.20;43.30;;;24.76;29.15;101322.47;5092526;28;20048;-50
2021/11/17 13:30:02;;;;;;;6.03;2.20;;;21.20;43.30;;;24.76;29.07;101318.94;5092882;28;20052;-45
2021/11/17 13:32:38;;;;;;;3.40;2.17;;;21.10;43.20;;;24.76;29.10;101324.31;5092337;28;20040;-48
2021/11/17 13:35:38;;;;;;;9.18;2.05;;;21.10;43.30;;;24.74;29.04;101332.44;5092436;28;20084;-45
2021/11/17 13:38:24;;;;;;;4.82;2.50;;;21.10;43.30;;;24.75;29.20;101320.75;5087210;28;20052;-45
2021/11/17 13:40:55;;;;;;;3.25;2.28;;;21.10;43.30;;;24.73;29.03;101314.66;5092611;28;20043;-48
2021/11/17 13:43:22;;;;;;;7.90;2.10;;;21.10;43.30;;;24.75;29.16;101322.56;5092155;28;20059;-47
2021/11/17 13:45:53;;;;;;;4.80;2.47;;;21.10;43.30;;;24.77;29.15;101334.00;5092382;28;20051;-47